createdAt,value
2023-05-19T00:04:01.611Z,100
2023-05-19T00:14:04.007Z,100
2023-05-19T00:24:05.799Z,100
2023-05-19T00:34:07.970Z,100
2023-05-19T00:44:10.367Z,100
2023-05-19T00:54:12.890Z,100
2023-05-19T01:04:14.689Z,100
2023-05-19T01:14:17.161Z,100
2023-05-19T01:24:19.114Z,100
2023-05-19T01:34:20.837Z,100
2023-05-19T01:44:23.277Z,100
2023-05-19T01:54:25.210Z,100
2023-05-19T02:04:27.036Z,100
2023-05-19T02:14:29.285Z,100
2023-05-19T02:24:31.177Z,100
2023-05-19T02:34:33.170Z,100
2023-05-19T02:44:35.015Z,100
2023-05-19T02:54:37.678Z,100
2023-05-19T03:04:39.521Z,100
2023-05-19T03:14:41.277Z,100
2023-05-19T03:24:43.095Z,100
2023-05-19T03:34:45.241Z,100
2023-05-19T03:44:47.062Z,100
2023-05-19T03:54:49.538Z,100
2023-05-19T04:04:51.810Z,100
2023-05-19T04:14:53.538Z,100
2023-05-19T04:24:56.022Z,100
2023-05-19T04:34:58.419Z,100
2023-05-19T04:45:00.271Z,100
2023-05-19T04:55:02.130Z,100
2023-05-19T05:05:04.782Z,100
2023-05-19T05:15:07.311Z,100
2023-05-19T05:25:09.317Z,100
2023-05-19T05:35:11.404Z,100
2023-05-19T05:45:13.983Z,100
2023-05-19T06:05:19.233Z,100
2023-05-19T06:15:21.480Z,100
2023-05-19T06:25:23.491Z,99
2023-05-19T06:35:26.116Z,92
2023-05-19T06:45:28.620Z,87
2023-05-19T06:55:30.299Z,84
2023-05-19T07:05:32.336Z,82
2023-05-19T07:15:34.820Z,81
2023-05-19T07:25:37.514Z,80
2023-05-19T07:35:39.608Z,78
2023-05-19T07:45:41.754Z,77
2023-05-19T07:55:43.808Z,76
2023-05-19T08:05:46.235Z,76
2023-05-19T08:15:48.758Z,75
2023-05-19T08:25:50.689Z,75
2023-05-19T08:35:52.795Z,74
2023-05-19T08:45:55.380Z,74
2023-05-19T08:55:57.543Z,73
2023-05-19T09:05:59.448Z,74
2023-05-19T09:16:01.755Z,75
2023-05-19T09:26:03.893Z,76
2023-05-19T09:36:05.820Z,76
2023-05-19T09:46:08.412Z,76
2023-05-19T09:56:10.566Z,77
2023-05-19T10:06:12.826Z,78
2023-05-19T10:16:14.770Z,79
2023-05-19T10:26:16.534Z,79
2023-05-19T10:36:18.824Z,78
2023-05-19T10:46:21.031Z,78
2023-05-19T10:56:23.439Z,77
2023-05-19T11:06:25.494Z,76
2023-05-19T11:16:27.484Z,76
2023-05-19T11:26:30.062Z,77
2023-05-19T11:46:34.525Z,77
2023-05-19T11:46:56.445Z,77
2023-05-19T11:56:44.162Z,77
2023-05-19T12:06:46.265Z,77
2023-05-19T12:16:48.274Z,77
2023-05-19T12:26:50.827Z,78
2023-05-19T12:36:53.026Z,78
2023-05-19T12:46:55.222Z,79
2023-05-19T12:56:57.466Z,78
2023-05-19T13:06:59.878Z,78
2023-05-19T13:17:02.297Z,79
2023-05-19T13:27:04.390Z,79
2023-05-19T13:37:07.718Z,80
2023-05-19T13:47:09.613Z,79
2023-05-19T13:57:11.890Z,79
2023-05-19T14:07:14.494Z,78
2023-05-19T14:17:16.689Z,78
2023-05-19T14:37:20.781Z,79
2023-05-19T14:47:22.538Z,79
2023-05-19T14:57:24.802Z,80
2023-05-19T15:07:27.204Z,79
2023-05-19T15:17:29.330Z,80
2023-05-19T15:27:31.911Z,80
2023-05-19T15:37:33.882Z,80
2023-05-19T15:47:36.310Z,80
2023-05-19T15:57:38.185Z,80
2023-05-19T16:07:40.207Z,80
2023-05-19T16:17:42.761Z,80
2023-05-19T16:27:44.521Z,80
2023-05-19T16:37:46.424Z,81
2023-05-19T16:57:51.154Z,81
2023-05-19T17:27:57.402Z,82
2023-05-19T17:37:59.529Z,82
2023-05-19T17:48:01.279Z,82
2023-05-19T17:58:03.629Z,82
2023-05-19T18:08:05.554Z,83
2023-05-19T18:18:07.299Z,83
2023-05-19T18:28:09.394Z,84
2023-05-19T18:38:11.426Z,85
2023-05-19T18:48:14.044Z,85
2023-05-19T18:58:16.505Z,86
2023-05-19T19:18:20.005Z,88
2023-05-19T19:28:21.929Z,89
2023-05-19T19:38:23.652Z,90
2023-05-19T19:48:25.697Z,91
2023-05-19T19:58:27.974Z,92
2023-05-19T20:08:29.862Z,93
2023-05-19T20:18:31.920Z,94
2023-05-19T20:28:34.197Z,95
2023-05-19T20:38:36.019Z,96
2023-05-19T20:48:38.638Z,97
2023-05-19T20:58:40.820Z,98
2023-05-19T21:08:43.255Z,98
2023-05-19T21:18:45.889Z,99
2023-05-19T21:28:47.829Z,100
2023-05-19T21:38:50.139Z,100
2023-05-19T21:48:52.136Z,100
2023-05-19T21:58:54.061Z,100
2023-05-19T22:08:56.576Z,100
2023-05-19T22:18:58.336Z,100
2023-05-19T22:39:02.578Z,100
2023-05-19T22:49:04.647Z,100
2023-05-19T23:09:08.786Z,100
2023-05-19T23:49:17.434Z,100
